createdAt,value
2022-09-30T00:04:58.417Z,9.98
2022-09-30T00:10:01.372Z,10.00
2022-09-30T00:15:06.486Z,9.93
2022-09-30T00:20:10.639Z,9.83
2022-09-30T00:25:13.542Z,9.95
2022-09-30T00:30:17.722Z,9.88
2022-09-30T00:35:22.613Z,9.80
2022-09-30T00:40:25.575Z,9.82
2022-09-30T00:45:30.833Z,9.82
2022-09-30T00:50:42.343Z,9.72
2022-09-30T00:55:51.383Z,9.55
2022-09-30T01:00:56.117Z,9.48
2022-09-30T01:05:59.032Z,9.44
2022-09-30T01:11:07.275Z,9.33
2022-09-30T01:16:31.172Z,9.27
2022-09-30T01:22:01.748Z,9.15
2022-09-30T01:27:23.745Z,9.11
2022-09-30T01:32:42.197Z,9.08
2022-09-30T01:37:57.368Z,8.99
2022-09-30T01:43:11.070Z,8.95
2022-09-30T01:48:22.202Z,8.94
2022-09-30T01:53:32.639Z,8.94
2022-09-30T01:58:43.369Z,8.95
2022-09-30T02:03:52.697Z,9.04
2022-09-30T02:09:00.584Z,8.97
2022-09-30T02:14:09.673Z,8.99
2022-09-30T02:19:20.511Z,9.03
2022-09-30T02:24:26.255Z,9.11
2022-09-30T02:29:36.723Z,9.17
2022-09-30T02:34:45.473Z,9.21
2022-09-30T02:39:53.796Z,9.29
2022-09-30T02:45:02.115Z,9.34
2022-09-30T02:50:13.954Z,9.55
2022-09-30T02:55:22.723Z,9.64
2022-09-30T03:00:25.862Z,9.72
2022-09-30T03:05:30.197Z,9.87
2022-09-30T03:10:34.503Z,9.87
2022-09-30T03:15:48.279Z,9.88
2022-09-30T03:21:09.479Z,9.74
2022-09-30T03:26:23.076Z,9.60
2022-09-30T03:31:35.341Z,9.47
2022-09-30T03:36:44.489Z,9.37
2022-09-30T03:41:54.116Z,9.26
2022-09-30T03:47:01.519Z,9.19
2022-09-30T03:52:10.127Z,9.13
2022-09-30T03:57:14.996Z,9.24
2022-09-30T04:02:17.817Z,9.28
2022-09-30T04:07:21.947Z,9.36
2022-09-30T04:12:24.706Z,9.56
2022-09-30T04:17:27.466Z,9.49
2022-09-30T04:22:31.874Z,9.39
2022-09-30T04:27:34.697Z,9.26
2022-09-30T04:32:37.511Z,9.27
2022-09-30T04:37:44.458Z,9.29
2022-09-30T04:42:47.666Z,9.31
2022-09-30T04:47:50.809Z,9.19
2022-09-30T04:52:55.910Z,9.13
2022-09-30T04:57:58.672Z,9.09
2022-09-30T05:03:01.740Z,9.15
2022-09-30T05:08:07.105Z,9.25
2022-09-30T05:13:10.399Z,9.13
2022-09-30T05:18:13.211Z,9.17
2022-09-30T05:23:20.074Z,9.08
2022-09-30T05:28:23.130Z,9.08
2022-09-30T05:33:25.970Z,8.94
2022-09-30T05:38:30.568Z,9.04
2022-09-30T05:43:33.488Z,8.90
2022-09-30T05:48:36.382Z,9.11
2022-09-30T05:53:41.195Z,9.16
2022-09-30T05:58:44.064Z,9.17
2022-09-30T06:03:47.984Z,9.41
2022-09-30T06:08:52.223Z,9.71
2022-09-30T06:13:55.048Z,10.07
2022-09-30T06:18:57.829Z,9.97
2022-09-30T06:24:02.308Z,9.98
2022-09-30T06:29:05.130Z,10.43
2022-09-30T06:34:08.333Z,10.82
2022-09-30T06:39:13.862Z,11.08
2022-09-30T06:44:16.756Z,13.08
2022-09-30T06:49:19.521Z,16.73
2022-09-30T06:54:23.911Z,18.88
2022-09-30T06:59:27.117Z,20.64
2022-09-30T07:04:30.072Z,21.08
2022-09-30T07:09:34.314Z,21.08
2022-09-30T07:14:37.438Z,19.37
2022-09-30T07:19:40.323Z,18.77
2022-09-30T07:24:44.502Z,18.12
2022-09-30T07:30:08.245Z,17.62
2022-09-30T07:35:10.663Z,15.57
2022-09-30T07:40:15.366Z,14.41
2022-09-30T07:45:19.397Z,13.69
2022-09-30T07:50:22.412Z,13.42
2022-09-30T07:55:26.613Z,13.03
2022-09-30T08:00:42.251Z,13.24
2022-09-30T08:05:45.820Z,13.18
2022-09-30T08:10:50.146Z,13.31
2022-09-30T08:15:52.925Z,13.27
2022-09-30T08:20:55.839Z,13.59
2022-09-30T08:26:04.547Z,13.68
2022-09-30T08:31:09.530Z,13.63
2022-09-30T08:36:14.246Z,13.32
2022-09-30T08:41:35.266Z,13.64
2022-09-30T08:46:47.994Z,13.85
2022-09-30T08:51:52.929Z,13.80
2022-09-30T08:56:58.275Z,14.08
2022-09-30T09:02:12.023Z,13.74
2022-09-30T09:07:27.139Z,14.00
2022-09-30T09:12:42.529Z,14.27
2022-09-30T09:18:24.691Z,14.57
2022-09-30T09:23:32.064Z,14.89
2022-09-30T09:28:43.810Z,15.05
2022-09-30T09:33:47.183Z,15.62
2022-09-30T09:39:04.493Z,15.64
2022-09-30T09:44:16.093Z,15.71
2022-09-30T09:49:32.943Z,15.83
2022-09-30T09:54:41.264Z,16.23
2022-09-30T09:59:58.488Z,16.71
2022-09-30T10:05:03.422Z,16.50
2022-09-30T10:10:23.345Z,17.17
2022-09-30T10:15:28.118Z,17.02
2022-09-30T10:20:33.246Z,16.94
2022-09-30T10:25:36.581Z,17.59
2022-09-30T10:30:47.809Z,17.52
2022-09-30T10:35:55.589Z,17.60
2022-09-30T10:40:59.681Z,17.25
2022-09-30T10:46:25.312Z,18.16
2022-09-30T10:51:37.534Z,17.53
2022-09-30T10:56:44.262Z,17.36
2022-09-30T11:01:57.348Z,16.84
2022-09-30T11:07:11.493Z,16.47
2022-09-30T11:12:21.540Z,16.32
2022-09-30T11:17:30.709Z,16.20
2022-09-30T11:22:43.024Z,16.22
2022-09-30T11:28:01.927Z,16.47
2022-09-30T11:33:30.250Z,15.72
2022-09-30T11:38:51.331Z,15.49
2022-09-30T11:44:05.577Z,15.66
2022-09-30T11:49:25.707Z,15.92
2022-09-30T11:54:43.117Z,16.19
2022-09-30T11:59:51.718Z,16.30
2022-09-30T12:05:00.663Z,16.05
2022-09-30T12:10:09.085Z,16.09
2022-09-30T12:15:17.706Z,16.51
2022-09-30T12:20:27.754Z,16.26
2022-09-30T12:25:37.742Z,16.22
2022-09-30T12:30:41.210Z,16.11
2022-09-30T12:36:05.451Z,16.25
2022-09-30T12:41:25.094Z,16.25
2022-09-30T12:46:48.718Z,16.04
2022-09-30T12:51:58.188Z,15.70
2022-09-30T12:57:03.977Z,15.89
2022-09-30T13:02:09.767Z,16.48
2022-09-30T13:07:21.843Z,16.33
2022-09-30T13:12:30.603Z,16.02
2022-09-30T13:17:36.176Z,16.12
2022-09-30T13:22:57.419Z,16.42
2022-09-30T13:28:30.099Z,16.20
2022-09-30T13:33:44.361Z,16.37
2022-09-30T13:39:07.830Z,16.01
2022-09-30T13:44:17.870Z,16.35
2022-09-30T13:49:25.406Z,16.40
2022-09-30T13:54:35.768Z,15.94
2022-09-30T13:59:49.139Z,15.97
2022-09-30T14:05:06.559Z,15.81
2022-09-30T14:10:28.987Z,15.84
2022-09-30T14:15:49.605Z,15.94
2022-09-30T14:21:06.573Z,15.74
2022-09-30T14:26:30.810Z,15.74
2022-09-30T14:31:33.980Z,16.12
2022-09-30T14:36:36.796Z,16.16
2022-09-30T14:41:42.515Z,16.01
2022-09-30T14:46:49.295Z,16.04
2022-09-30T14:51:52.035Z,16.00
2022-09-30T14:56:56.947Z,16.22
2022-09-30T15:02:01.679Z,16.40
2022-09-30T15:07:07.163Z,16.35
2022-09-30T15:12:15.208Z,16.18
2022-09-30T15:17:19.821Z,15.65
2022-09-30T15:22:23.961Z,15.70
2022-09-30T15:27:32.974Z,15.44
2022-09-30T15:32:37.079Z,15.67
2022-09-30T15:37:40.014Z,15.60
2022-09-30T15:42:47.694Z,15.45
2022-09-30T15:47:56.752Z,15.39
2022-09-30T15:53:05.052Z,15.19
2022-09-30T15:58:33.531Z,15.00
2022-09-30T16:03:37.042Z,14.91
2022-09-30T16:08:44.915Z,14.86
2022-09-30T16:13:50.070Z,14.60
2022-09-30T16:18:54.774Z,14.59
2022-09-30T16:23:57.807Z,14.49
2022-09-30T16:29:08.062Z,14.34
2022-09-30T16:34:20.613Z,14.18
2022-09-30T16:39:23.430Z,14.12
2022-09-30T16:44:27.642Z,14.02
2022-09-30T16:49:30.506Z,13.99
2022-09-30T16:54:33.402Z,13.88
2022-09-30T16:59:37.491Z,13.77
2022-09-30T17:04:40.278Z,13.68
2022-09-30T17:09:44.444Z,13.61
2022-09-30T17:14:49.064Z,13.60
2022-09-30T17:19:51.953Z,13.48
2022-09-30T17:24:54.723Z,13.44
2022-09-30T17:29:58.938Z,13.40
2022-09-30T17:35:01.737Z,13.34
2022-09-30T17:40:25.703Z,13.42
2022-09-30T17:45:29.951Z,13.34
2022-09-30T17:50:34.139Z,13.24
2022-09-30T17:55:36.973Z,13.24
2022-09-30T18:00:41.517Z,13.05
2022-09-30T18:05:45.524Z,13.00
2022-09-30T18:10:48.382Z,13.09
2022-09-30T18:15:52.586Z,12.84
2022-09-30T18:20:55.350Z,12.81
2022-09-30T18:25:58.479Z,12.99
2022-09-30T18:31:08.022Z,12.87
2022-09-30T18:36:10.806Z,12.83
2022-09-30T18:41:13.810Z,12.71
2022-09-30T18:46:20.459Z,12.68
2022-09-30T18:51:24.944Z,12.66
2022-09-30T18:56:31.249Z,12.64
2022-09-30T19:01:36.452Z,12.61
2022-09-30T19:06:40.910Z,12.59
2022-09-30T19:11:46.196Z,12.49
2022-09-30T19:16:51.227Z,12.52
2022-09-30T19:21:55.219Z,12.44
2022-09-30T19:26:58.209Z,12.37
2022-09-30T19:32:02.898Z,12.23
2022-09-30T19:37:07.558Z,12.19
2022-09-30T19:42:15.057Z,12.11
2022-09-30T19:47:19.783Z,12.01
2022-09-30T19:52:22.787Z,11.99
2022-09-30T19:57:25.733Z,12.02
2022-09-30T20:02:30.445Z,12.03
2022-09-30T20:07:34.731Z,11.97
2022-09-30T20:12:37.505Z,11.89
2022-09-30T20:17:41.753Z,11.97
2022-09-30T20:22:44.662Z,11.92
2022-09-30T20:27:51.966Z,11.86
2022-09-30T20:32:56.650Z,11.67
2022-09-30T20:37:59.421Z,11.54
2022-09-30T20:43:04.127Z,11.63
2022-09-30T20:48:09.435Z,11.65
2022-09-30T20:53:13.888Z,11.61
2022-09-30T20:58:16.723Z,11.57
2022-09-30T21:03:21.530Z,11.51
2022-09-30T21:08:24.307Z,11.56
2022-09-30T21:13:27.111Z,11.66
2022-09-30T21:18:31.650Z,11.63
2022-09-30T21:23:35.586Z,11.57
2022-09-30T21:28:38.442Z,11.61
2022-09-30T21:33:43.951Z,11.55
2022-09-30T21:38:46.758Z,11.45
2022-09-30T21:43:49.877Z,11.33
2022-09-30T21:49:05.205Z,11.33
2022-09-30T21:54:13.691Z,11.28
2022-09-30T21:59:17.183Z,11.38
2022-09-30T22:04:21.293Z,11.23
2022-09-30T22:09:24.173Z,11.23
2022-09-30T22:14:27.058Z,11.34
2022-09-30T22:19:31.237Z,11.24
2022-09-30T22:24:36.842Z,11.32
2022-09-30T22:29:39.571Z,11.53
2022-09-30T22:35:00.931Z,11.72
2022-09-30T22:40:03.685Z,11.78
2022-09-30T22:45:07.645Z,11.69
2022-09-30T22:50:11.797Z,11.74
2022-09-30T22:55:15.046Z,11.72
2022-09-30T23:00:18.067Z,11.84
2022-09-30T23:05:22.210Z,11.85
2022-09-30T23:10:25.312Z,11.57
2022-09-30T23:15:28.127Z,11.57
2022-09-30T23:20:32.455Z,11.47
2022-09-30T23:25:35.231Z,11.61
2022-09-30T23:30:38.221Z,11.62
2022-09-30T23:35:47.108Z,11.70
2022-09-30T23:40:50.428Z,11.59
2022-09-30T23:45:53.260Z,11.59
2022-09-30T23:50:57.489Z,11.61
2022-09-30T23:56:03.018Z,11.65
